sensor_id;sensor_type;location;lat;lon;timestamp;P1;durP1;ratioP1;P2;durP2;ratioP2
71464;SDS011;59274;49.874;9.154;2023-11-19T00:02:06;3.33;;;1.30;;
71464;SDS011;59274;49.874;9.154;2023-11-19T00:04:33;1.77;;;1.25;;
71464;SDS011;59274;49.874;9.154;2023-11-19T00:07:02;2.75;;;1.50;;
71464;SDS011;59274;49.874;9.154;2023-11-19T00:09:29;3.27;;;1.73;;
71464;SDS011;59274;49.874;9.154;2023-11-19T00:11:55;3.55;;;1.88;;
71464;SDS011;59274;49.874;9.154;2023-11-19T00:14:20;2.83;;;1.40;;
71464;SDS011;59274;49.874;9.154;2023-11-19T00:16:46;3.42;;;1.80;;
71464;SDS011;59274;49.874;9.154;2023-11-19T00:19:11;2.15;;;1.40;;
71464;SDS011;59274;49.874;9.154;2023-11-19T00:21:37;6.53;;;1.90;;
71464;SDS011;59274;49.874;9.154;2023-11-19T00:24:02;4.60;;;2.00;;
71464;SDS011;59274;49.874;9.154;2023-11-19T00:26:29;3.15;;;1.45;;
71464;SDS011;59274;49.874;9.154;2023-11-19T00:28:55;3.23;;;1.50;;
71464;SDS011;59274;49.874;9.154;2023-11-19T00:31:21;3.00;;;1.50;;
71464;SDS011;59274;49.874;9.154;2023-11-19T00:33:46;3.55;;;1.75;;
71464;SDS011;59274;49.874;9.154;2023-11-19T00:36:12;3.23;;;1.53;;
71464;SDS011;59274;49.874;9.154;2023-11-19T00:38:38;3.15;;;1.65;;
71464;SDS011;59274;49.874;9.154;2023-11-19T00:41:03;2.22;;;1.10;;
71464;SDS011;59274;49.874;9.154;2023-11-19T00:43:29;3.60;;;1.90;;
71464;SDS011;59274;49.874;9.154;2023-11-19T00:45:54;2.38;;;1.25;;
71464;SDS011;59274;49.874;9.154;2023-11-19T00:48:20;3.10;;;1.57;;
71464;SDS011;59274;49.874;9.154;2023-11-19T00:50:45;1.93;;;1.17;;
71464;SDS011;59274;49.874;9.154;2023-11-19T00:53:11;1.85;;;1.40;;
71464;SDS011;59274;49.874;9.154;2023-11-19T00:55:37;2.43;;;1.10;;
71464;SDS011;59274;49.874;9.154;2023-11-19T00:58:02;3.23;;;1.63;;
71464;SDS011;59274;49.874;9.154;2023-11-19T01:00:28;2.45;;;1.40;;
71464;SDS011;59274;49.874;9.154;2023-11-19T01:02:54;3.47;;;1.57;;
71464;SDS011;59274;49.874;9.154;2023-11-19T01:05:22;2.33;;;1.50;;
71464;SDS011;59274;49.874;9.154;2023-11-19T01:07:48;1.97;;;1.13;;
71464;SDS011;59274;49.874;9.154;2023-11-19T01:10:14;1.63;;;1.05;;
71464;SDS011;59274;49.874;9.154;2023-11-19T01:12:41;3.90;;;1.65;;
71464;SDS011;59274;49.874;9.154;2023-11-19T01:15:07;3.45;;;1.40;;
71464;SDS011;59274;49.874;9.154;2023-11-19T01:17:33;2.15;;;1.10;;
71464;SDS011;59274;49.874;9.154;2023-11-19T01:19:58;2.37;;;1.33;;
71464;SDS011;59274;49.874;9.154;2023-11-19T01:22:24;3.50;;;1.90;;
71464;SDS011;59274;49.874;9.154;2023-11-19T01:24:49;2.13;;;1.10;;
71464;SDS011;59274;49.874;9.154;2023-11-19T01:27:14;3.50;;;1.67;;
71464;SDS011;59274;49.874;9.154;2023-11-19T01:29:40;2.72;;;1.40;;
71464;SDS011;59274;49.874;9.154;2023-11-19T01:32:08;2.90;;;1.30;;
71464;SDS011;59274;49.874;9.154;2023-11-19T01:34:33;1.90;;;1.13;;
71464;SDS011;59274;49.874;9.154;2023-11-19T01:36:59;2.73;;;1.40;;
71464;SDS011;59274;49.874;9.154;2023-11-19T01:39:24;2.73;;;1.53;;
71464;SDS011;59274;49.874;9.154;2023-11-19T01:41:49;3.20;;;1.47;;
71464;SDS011;59274;49.874;9.154;2023-11-19T01:44:15;2.60;;;1.33;;
71464;SDS011;59274;49.874;9.154;2023-11-19T01:46:41;2.80;;;1.40;;
71464;SDS011;59274;49.874;9.154;2023-11-19T01:49:08;1.75;;;1.05;;
71464;SDS011;59274;49.874;9.154;2023-11-19T01:51:34;2.13;;;1.10;;
71464;SDS011;59274;49.874;9.154;2023-11-19T01:54:00;3.47;;;1.38;;
71464;SDS011;59274;49.874;9.154;2023-11-19T01:56:27;3.10;;;1.42;;
71464;SDS011;59274;49.874;9.154;2023-11-19T01:58:53;2.60;;;1.30;;
71464;SDS011;59274;49.874;9.154;2023-11-19T02:01:19;2.97;;;1.30;;
71464;SDS011;59274;49.874;9.154;2023-11-19T02:03:45;2.55;;;1.30;;
71464;SDS011;59274;49.874;9.154;2023-11-19T02:06:12;5.73;;;1.80;;
71464;SDS011;59274;49.874;9.154;2023-11-19T02:08:38;4.10;;;1.60;;
71464;SDS011;59274;49.874;9.154;2023-11-19T02:11:04;2.47;;;1.60;;
71464;SDS011;59274;49.874;9.154;2023-11-19T02:13:32;2.40;;;1.30;;
71464;SDS011;59274;49.874;9.154;2023-11-19T02:15:58;3.30;;;1.53;;
71464;SDS011;59274;49.874;9.154;2023-11-19T02:18:24;2.13;;;1.40;;
71464;SDS011;59274;49.874;9.154;2023-11-19T02:21:02;2.55;;;1.20;;
71464;SDS011;59274;49.874;9.154;2023-11-19T02:23:27;1.58;;;1.08;;
71464;SDS011;59274;49.874;9.154;2023-11-19T02:28:27;2.30;;;1.30;;
71464;SDS011;59274;49.874;9.154;2023-11-19T02:30:53;4.28;;;1.10;;
71464;SDS011;59274;49.874;9.154;2023-11-19T02:33:18;1.27;;;0.80;;
71464;SDS011;59274;49.874;9.154;2023-11-19T02:35:44;1.87;;;1.17;;
71464;SDS011;59274;49.874;9.154;2023-11-19T02:38:09;1.33;;;1.00;;
71464;SDS011;59274;49.874;9.154;2023-11-19T02:40:36;1.20;;;0.82;;
71464;SDS011;59274;49.874;9.154;2023-11-19T02:43:01;1.70;;;0.80;;
71464;SDS011;59274;49.874;9.154;2023-11-19T02:45:29;1.20;;;0.63;;
71464;SDS011;59274;49.874;9.154;2023-11-19T02:47:56;4.38;;;0.82;;
71464;SDS011;59274;49.874;9.154;2023-11-19T02:50:21;1.73;;;1.03;;
71464;SDS011;59274;49.874;9.154;2023-11-19T02:52:51;1.13;;;0.65;;
71464;SDS011;59274;49.874;9.154;2023-11-19T02:55:18;2.17;;;0.70;;
71464;SDS011;59274;49.874;9.154;2023-11-19T02:57:44;1.45;;;0.75;;
71464;SDS011;59274;49.874;9.154;2023-11-19T03:00:21;1.10;;;0.73;;
71464;SDS011;59274;49.874;9.154;2023-11-19T03:03:01;2.27;;;0.73;;
71464;SDS011;59274;49.874;9.154;2023-11-19T03:05:42;1.30;;;0.70;;
71464;SDS011;59274;49.874;9.154;2023-11-19T03:08:09;0.90;;;0.80;;
71464;SDS011;59274;49.874;9.154;2023-11-19T03:10:35;1.77;;;0.80;;
71464;SDS011;59274;49.874;9.154;2023-11-19T03:13:01;0.70;;;0.57;;
71464;SDS011;59274;49.874;9.154;2023-11-19T03:15:27;1.03;;;0.67;;
71464;SDS011;59274;49.874;9.154;2023-11-19T03:17:52;1.42;;;0.93;;
71464;SDS011;59274;49.874;9.154;2023-11-19T03:20:18;0.93;;;0.70;;
71464;SDS011;59274;49.874;9.154;2023-11-19T03:22:43;1.23;;;0.70;;
71464;SDS011;59274;49.874;9.154;2023-11-19T03:25:09;0.95;;;0.80;;
71464;SDS011;59274;49.874;9.154;2023-11-19T03:27:38;1.80;;;1.00;;
71464;SDS011;59274;49.874;9.154;2023-11-19T03:30:07;0.93;;;0.82;;
71464;SDS011;59274;49.874;9.154;2023-11-19T03:32:37;2.45;;;0.80;;
71464;SDS011;59274;49.874;9.154;2023-11-19T03:35:03;1.48;;;0.88;;
71464;SDS011;59274;49.874;9.154;2023-11-19T03:37:32;2.08;;;1.00;;
71464;SDS011;59274;49.874;9.154;2023-11-19T03:39:58;0.80;;;0.60;;
71464;SDS011;59274;49.874;9.154;2023-11-19T03:42:28;1.63;;;0.68;;
71464;SDS011;59274;49.874;9.154;2023-11-19T03:44:55;0.95;;;0.50;;
71464;SDS011;59274;49.874;9.154;2023-11-19T03:47:21;0.80;;;0.70;;
71464;SDS011;59274;49.874;9.154;2023-11-19T03:49:50;1.07;;;0.70;;
71464;SDS011;59274;49.874;9.154;2023-11-19T03:52:16;1.00;;;0.60;;
71464;SDS011;59274;49.874;9.154;2023-11-19T03:54:42;0.80;;;0.57;;
71464;SDS011;59274;49.874;9.154;2023-11-19T03:57:07;0.60;;;0.50;;
71464;SDS011;59274;49.874;9.154;2023-11-19T03:59:35;0.50;;;0.50;;
71464;SDS011;59274;49.874;9.154;2023-11-19T04:02:01;1.33;;;0.90;;
71464;SDS011;59274;49.874;9.154;2023-11-19T04:04:27;0.70;;;0.60;;
71464;SDS011;59274;49.874;9.154;2023-11-19T04:06:54;1.63;;;0.90;;
71464;SDS011;59274;49.874;9.154;2023-11-19T04:09:20;1.60;;;0.70;;
71464;SDS011;59274;49.874;9.154;2023-11-19T04:11:45;1.50;;;0.70;;
71464;SDS011;59274;49.874;9.154;2023-11-19T04:14:15;1.58;;;1.00;;
71464;SDS011;59274;49.874;9.154;2023-11-19T04:16:43;1.80;;;0.85;;
71464;SDS011;59274;49.874;9.154;2023-11-19T04:19:10;1.73;;;0.70;;
71464;SDS011;59274;49.874;9.154;2023-11-19T04:21:35;1.90;;;0.63;;
71464;SDS011;59274;49.874;9.154;2023-11-19T04:24:00;1.00;;;0.87;;
71464;SDS011;59274;49.874;9.154;2023-11-19T04:26:26;0.93;;;0.80;;
71464;SDS011;59274;49.874;9.154;2023-11-19T04:28:52;0.87;;;0.80;;
71464;SDS011;59274;49.874;9.154;2023-11-19T04:31:17;0.57;;;0.43;;
71464;SDS011;59274;49.874;9.154;2023-11-19T04:33:43;0.73;;;0.60;;
71464;SDS011;59274;49.874;9.154;2023-11-19T04:36:09;0.70;;;0.70;;
71464;SDS011;59274;49.874;9.154;2023-11-19T04:38:35;0.60;;;0.60;;
71464;SDS011;59274;49.874;9.154;2023-11-19T04:41:00;0.60;;;0.60;;
71464;SDS011;59274;49.874;9.154;2023-11-19T04:43:26;0.40;;;0.40;;
71464;SDS011;59274;49.874;9.154;2023-11-19T04:45:52;0.73;;;0.60;;
71464;SDS011;59274;49.874;9.154;2023-11-19T04:48:17;0.60;;;0.60;;
71464;SDS011;59274;49.874;9.154;2023-11-19T04:50:42;0.97;;;0.80;;
71464;SDS011;59274;49.874;9.154;2023-11-19T04:53:08;2.15;;;0.60;;
71464;SDS011;59274;49.874;9.154;2023-11-19T04:55:33;0.73;;;0.67;;
71464;SDS011;59274;49.874;9.154;2023-11-19T04:57:58;0.80;;;0.80;;
71464;SDS011;59274;49.874;9.154;2023-11-19T05:00:24;0.57;;;0.57;;
71464;SDS011;59274;49.874;9.154;2023-11-19T05:02:50;0.90;;;0.60;;
71464;SDS011;59274;49.874;9.154;2023-11-19T05:05:16;0.50;;;0.50;;
71464;SDS011;59274;49.874;9.154;2023-11-19T05:07:42;0.90;;;0.70;;
71464;SDS011;59274;49.874;9.154;2023-11-19T05:10:08;0.47;;;0.38;;
71464;SDS011;59274;49.874;9.154;2023-11-19T05:12:33;1.53;;;1.00;;
71464;SDS011;59274;49.874;9.154;2023-11-19T05:14:59;0.73;;;0.60;;
71464;SDS011;59274;49.874;9.154;2023-11-19T05:17:25;0.30;;;0.30;;
71464;SDS011;59274;49.874;9.154;2023-11-19T05:19:50;0.40;;;0.40;;
71464;SDS011;59274;49.874;9.154;2023-11-19T05:22:16;0.87;;;0.60;;
71464;SDS011;59274;49.874;9.154;2023-11-19T05:24:42;2.07;;;0.60;;
71464;SDS011;59274;49.874;9.154;2023-11-19T05:27:07;0.50;;;0.50;;
71464;SDS011;59274;49.874;9.154;2023-11-19T05:29:33;1.03;;;0.63;;
71464;SDS011;59274;49.874;9.154;2023-11-19T05:31:59;0.85;;;0.43;;
71464;SDS011;59274;49.874;9.154;2023-11-19T05:34:25;0.57;;;0.50;;
71464;SDS011;59274;49.874;9.154;2023-11-19T05:36:50;1.02;;;0.50;;
71464;SDS011;59274;49.874;9.154;2023-11-19T05:39:16;0.50;;;0.50;;
71464;SDS011;59274;49.874;9.154;2023-11-19T05:41:43;1.13;;;0.80;;
71464;SDS011;59274;49.874;9.154;2023-11-19T05:44:09;1.87;;;0.67;;
71464;SDS011;59274;49.874;9.154;2023-11-19T05:46:34;0.80;;;0.80;;
71464;SDS011;59274;49.874;9.154;2023-11-19T05:49:05;1.23;;;0.60;;
71464;SDS011;59274;49.874;9.154;2023-11-19T05:51:30;1.63;;;0.80;;
71464;SDS011;59274;49.874;9.154;2023-11-19T05:53:56;1.67;;;0.70;;
71464;SDS011;59274;49.874;9.154;2023-11-19T05:56:22;2.27;;;0.90;;
71464;SDS011;59274;49.874;9.154;2023-11-19T05:58:47;1.38;;;0.88;;
71464;SDS011;59274;49.874;9.154;2023-11-19T06:01:14;1.98;;;1.13;;
71464;SDS011;59274;49.874;9.154;2023-11-19T06:03:40;1.87;;;0.93;;
71464;SDS011;59274;49.874;9.154;2023-11-19T06:06:08;1.02;;;0.90;;
71464;SDS011;59274;49.874;9.154;2023-11-19T06:08:34;2.60;;;1.10;;
71464;SDS011;59274;49.874;9.154;2023-11-19T06:10:59;1.73;;;0.87;;
71464;SDS011;59274;49.874;9.154;2023-11-19T06:13:26;2.17;;;1.20;;
71464;SDS011;59274;49.874;9.154;2023-11-19T06:15:51;2.47;;;1.13;;
71464;SDS011;59274;49.874;9.154;2023-11-19T06:18:17;1.13;;;0.77;;
71464;SDS011;59274;49.874;9.154;2023-11-19T06:20:44;1.98;;;1.30;;
71464;SDS011;59274;49.874;9.154;2023-11-19T06:23:10;2.10;;;1.00;;
71464;SDS011;59274;49.874;9.154;2023-11-19T06:25:35;1.20;;;0.88;;
71464;SDS011;59274;49.874;9.154;2023-11-19T06:28:01;1.63;;;1.03;;
71464;SDS011;59274;49.874;9.154;2023-11-19T06:30:26;2.60;;;0.77;;
71464;SDS011;59274;49.874;9.154;2023-11-19T06:32:53;1.15;;;0.90;;
71464;SDS011;59274;49.874;9.154;2023-11-19T06:35:19;1.03;;;0.70;;
71464;SDS011;59274;49.874;9.154;2023-11-19T06:37:44;1.10;;;0.60;;
71464;SDS011;59274;49.874;9.154;2023-11-19T06:40:10;1.40;;;0.82;;
71464;SDS011;59274;49.874;9.154;2023-11-19T06:42:37;1.50;;;0.88;;
71464;SDS011;59274;49.874;9.154;2023-11-19T06:45:03;1.23;;;0.75;;
71464;SDS011;59274;49.874;9.154;2023-11-19T06:47:32;1.13;;;1.00;;
71464;SDS011;59274;49.874;9.154;2023-11-19T06:49:58;1.00;;;0.87;;
71464;SDS011;59274;49.874;9.154;2023-11-19T06:52:23;2.08;;;1.10;;
71464;SDS011;59274;49.874;9.154;2023-11-19T06:54:49;1.40;;;0.60;;
71464;SDS011;59274;49.874;9.154;2023-11-19T06:57:14;1.37;;;0.90;;
71464;SDS011;59274;49.874;9.154;2023-11-19T06:59:40;1.40;;;0.87;;
71464;SDS011;59274;49.874;9.154;2023-11-19T07:02:06;0.87;;;0.60;;
71464;SDS011;59274;49.874;9.154;2023-11-19T07:04:31;1.35;;;0.80;;
71464;SDS011;59274;49.874;9.154;2023-11-19T07:06:58;1.20;;;1.00;;
71464;SDS011;59274;49.874;9.154;2023-11-19T07:09:24;1.15;;;0.80;;
71464;SDS011;59274;49.874;9.154;2023-11-19T07:11:50;1.73;;;1.00;;
71464;SDS011;59274;49.874;9.154;2023-11-19T07:14:17;0.85;;;0.70;;
71464;SDS011;59274;49.874;9.154;2023-11-19T07:16:43;1.17;;;0.88;;
71464;SDS011;59274;49.874;9.154;2023-11-19T07:19:09;0.77;;;0.77;;
71464;SDS011;59274;49.874;9.154;2023-11-19T07:21:34;1.00;;;0.80;;
71464;SDS011;59274;49.874;9.154;2023-11-19T07:24:00;1.13;;;0.80;;
71464;SDS011;59274;49.874;9.154;2023-11-19T07:26:25;1.17;;;0.70;;
71464;SDS011;59274;49.874;9.154;2023-11-19T07:28:52;0.50;;;0.50;;
71464;SDS011;59274;49.874;9.154;2023-11-19T07:31:17;1.23;;;0.88;;
71464;SDS011;59274;49.874;9.154;2023-11-19T07:33:44;1.02;;;0.85;;
71464;SDS011;59274;49.874;9.154;2023-11-19T07:36:10;1.67;;;0.70;;
71464;SDS011;59274;49.874;9.154;2023-11-19T07:38:36;2.03;;;0.60;;
71464;SDS011;59274;49.874;9.154;2023-11-19T07:41:02;1.15;;;0.70;;
71464;SDS011;59274;49.874;9.154;2023-11-19T07:43:27;1.02;;;0.60;;
71464;SDS011;59274;49.874;9.154;2023-11-19T07:45:53;1.57;;;0.80;;
71464;SDS011;59274;49.874;9.154;2023-11-19T07:48:18;0.97;;;0.63;;
71464;SDS011;59274;49.874;9.154;2023-11-19T07:50:48;3.22;;;0.70;;
71464;SDS011;59274;49.874;9.154;2023-11-19T07:53:17;1.17;;;0.82;;
71464;SDS011;59274;49.874;9.154;2023-11-19T07:55:43;1.52;;;0.90;;
71464;SDS011;59274;49.874;9.154;2023-11-19T07:58:09;1.23;;;0.80;;
71464;SDS011;59274;49.874;9.154;2023-11-19T08:00:35;1.33;;;0.90;;
71464;SDS011;59274;49.874;9.154;2023-11-19T08:03:01;1.57;;;0.90;;
71464;SDS011;59274;49.874;9.154;2023-11-19T08:05:26;1.47;;;0.97;;
71464;SDS011;59274;49.874;9.154;2023-11-19T08:07:51;2.60;;;1.00;;
71464;SDS011;59274;49.874;9.154;2023-11-19T08:10:18;1.03;;;0.70;;
71464;SDS011;59274;49.874;9.154;2023-11-19T08:12:44;3.05;;;0.93;;
71464;SDS011;59274;49.874;9.154;2023-11-19T08:15:09;4.28;;;1.10;;
71464;SDS011;59274;49.874;9.154;2023-11-19T08:17:35;1.60;;;1.10;;
71464;SDS011;59274;49.874;9.154;2023-11-19T08:20:01;3.28;;;1.23;;
71464;SDS011;59274;49.874;9.154;2023-11-19T08:22:28;1.15;;;0.90;;
71464;SDS011;59274;49.874;9.154;2023-11-19T08:24:53;1.90;;;1.03;;
71464;SDS011;59274;49.874;9.154;2023-11-19T08:27:18;1.33;;;0.90;;
71464;SDS011;59274;49.874;9.154;2023-11-19T08:29:44;1.63;;;0.90;;
71464;SDS011;59274;49.874;9.154;2023-11-19T08:32:09;1.40;;;0.90;;
71464;SDS011;59274;49.874;9.154;2023-11-19T08:34:36;3.35;;;1.10;;
71464;SDS011;59274;49.874;9.154;2023-11-19T08:37:01;1.92;;;1.20;;
71464;SDS011;59274;49.874;9.154;2023-11-19T08:39:26;2.20;;;0.98;;
71464;SDS011;59274;49.874;9.154;2023-11-19T08:41:52;4.63;;;0.90;;
71464;SDS011;59274;49.874;9.154;2023-11-19T08:44:17;2.43;;;1.00;;
71464;SDS011;59274;49.874;9.154;2023-11-19T08:46:50;3.80;;;1.33;;
71464;SDS011;59274;49.874;9.154;2023-11-19T08:49:16;5.88;;;1.40;;
71464;SDS011;59274;49.874;9.154;2023-11-19T08:51:42;1.87;;;1.10;;
71464;SDS011;59274;49.874;9.154;2023-11-19T08:54:07;3.40;;;1.40;;
71464;SDS011;59274;49.874;9.154;2023-11-19T08:56:33;3.67;;;1.00;;
71464;SDS011;59274;49.874;9.154;2023-11-19T08:59:00;1.52;;;1.10;;
71464;SDS011;59274;49.874;9.154;2023-11-19T09:01:26;1.77;;;1.10;;
71464;SDS011;59274;49.874;9.154;2023-11-19T09:03:51;3.10;;;1.10;;
71464;SDS011;59274;49.874;9.154;2023-11-19T09:06:17;3.90;;;1.00;;
71464;SDS011;59274;49.874;9.154;2023-11-19T09:08:43;1.73;;;0.90;;
71464;SDS011;59274;49.874;9.154;2023-11-19T09:11:08;1.55;;;0.98;;
71464;SDS011;59274;49.874;9.154;2023-11-19T09:13:34;2.87;;;1.23;;
71464;SDS011;59274;49.874;9.154;2023-11-19T09:16:00;3.22;;;1.10;;
71464;SDS011;59274;49.874;9.154;2023-11-19T09:18:28;2.90;;;1.23;;
71464;SDS011;59274;49.874;9.154;2023-11-19T09:20:54;3.45;;;1.38;;
71464;SDS011;59274;49.874;9.154;2023-11-19T09:23:20;1.70;;;1.10;;
71464;SDS011;59274;49.874;9.154;2023-11-19T09:25:45;5.63;;;1.63;;
71464;SDS011;59274;49.874;9.154;2023-11-19T09:28:11;3.03;;;1.10;;
71464;SDS011;59274;49.874;9.154;2023-11-19T09:30:38;2.13;;;1.07;;
71464;SDS011;59274;49.874;9.154;2023-11-19T09:33:03;1.83;;;1.10;;
71464;SDS011;59274;49.874;9.154;2023-11-19T09:35:29;1.83;;;1.00;;
71464;SDS011;59274;49.874;9.154;2023-11-19T09:37:54;2.27;;;1.00;;
71464;SDS011;59274;49.874;9.154;2023-11-19T09:40:19;3.30;;;1.00;;
71464;SDS011;59274;49.874;9.154;2023-11-19T09:42:45;2.53;;;1.10;;
71464;SDS011;59274;49.874;9.154;2023-11-19T09:45:13;2.92;;;1.60;;
71464;SDS011;59274;49.874;9.154;2023-11-19T09:47:42;3.13;;;0.83;;
71464;SDS011;59274;49.874;9.154;2023-11-19T09:50:10;2.45;;;1.08;;
71464;SDS011;59274;49.874;9.154;2023-11-19T09:52:44;0.82;;;0.63;;
71464;SDS011;59274;49.874;9.154;2023-11-19T09:55:11;2.60;;;0.88;;
71464;SDS011;59274;49.874;9.154;2023-11-19T09:57:40;2.23;;;1.20;;
71464;SDS011;59274;49.874;9.154;2023-11-19T10:00:07;2.50;;;0.85;;
71464;SDS011;59274;49.874;9.154;2023-11-19T10:02:35;1.55;;;0.80;;
71464;SDS011;59274;49.874;9.154;2023-11-19T10:05:03;3.22;;;0.82;;
71464;SDS011;59274;49.874;9.154;2023-11-19T10:07:31;1.15;;;0.60;;
71464;SDS011;59274;49.874;9.154;2023-11-19T10:10:02;1.77;;;1.27;;
71464;SDS011;59274;49.874;9.154;2023-11-19T10:12:32;1.42;;;0.90;;
71464;SDS011;59274;49.874;9.154;2023-11-19T10:14:58;2.13;;;0.73;;
71464;SDS011;59274;49.874;9.154;2023-11-19T10:17:28;4.40;;;0.90;;
71464;SDS011;59274;49.874;9.154;2023-11-19T10:19:54;2.63;;;0.85;;
71464;SDS011;59274;49.874;9.154;2023-11-19T10:22:22;1.48;;;0.88;;
71464;SDS011;59274;49.874;9.154;2023-11-19T10:24:48;1.42;;;0.85;;
71464;SDS011;59274;49.874;9.154;2023-11-19T10:27:13;1.23;;;0.80;;
71464;SDS011;59274;49.874;9.154;2023-11-19T10:29:40;1.10;;;0.70;;
71464;SDS011;59274;49.874;9.154;2023-11-19T10:32:15;4.35;;;1.58;;
71464;SDS011;59274;49.874;9.154;2023-11-19T10:34:41;2.20;;;1.00;;
71464;SDS011;59274;49.874;9.154;2023-11-19T10:37:08;1.60;;;0.80;;
71464;SDS011;59274;49.874;9.154;2023-11-19T10:40:16;2.67;;;1.00;;
71464;SDS011;59274;49.874;9.154;2023-11-19T10:42:42;2.30;;;1.10;;
71464;SDS011;59274;49.874;9.154;2023-11-19T10:45:23;3.10;;;1.30;;
71464;SDS011;59274;49.874;9.154;2023-11-19T10:47:50;4.28;;;1.30;;
71464;SDS011;59274;49.874;9.154;2023-11-19T10:50:17;4.82;;;2.00;;
71464;SDS011;59274;49.874;9.154;2023-11-19T10:52:42;2.83;;;1.50;;
71464;SDS011;59274;49.874;9.154;2023-11-19T10:55:09;4.80;;;1.95;;
71464;SDS011;59274;49.874;9.154;2023-11-19T10:57:39;3.47;;;1.20;;
71464;SDS011;59274;49.874;9.154;2023-11-19T11:00:11;4.65;;;1.70;;
71464;SDS011;59274;49.874;9.154;2023-11-19T11:02:43;3.05;;;1.58;;
71464;SDS011;59274;49.874;9.154;2023-11-19T11:05:14;2.15;;;0.95;;
71464;SDS011;59274;49.874;9.154;2023-11-19T11:07:41;3.78;;;1.15;;
71464;SDS011;59274;49.874;9.154;2023-11-19T11:10:09;1.80;;;1.10;;
71464;SDS011;59274;49.874;9.154;2023-11-19T11:12:37;1.60;;;1.10;;
71464;SDS011;59274;49.874;9.154;2023-11-19T11:15:03;2.03;;;1.10;;
71464;SDS011;59274;49.874;9.154;2023-11-19T11:17:31;6.80;;;2.78;;
71464;SDS011;59274;49.874;9.154;2023-11-19T11:19:58;6.10;;;2.30;;
71464;SDS011;59274;49.874;9.154;2023-11-19T11:22:27;4.90;;;1.50;;
71464;SDS011;59274;49.874;9.154;2023-11-19T11:28:03;5.35;;;1.60;;
71464;SDS011;59274;49.874;9.154;2023-11-19T11:36:31;1.70;;;1.00;;
71464;SDS011;59274;49.874;9.154;2023-11-19T11:39:10;5.60;;;0.90;;
71464;SDS011;59274;49.874;9.154;2023-11-19T11:41:36;6.63;;;1.55;;
71464;SDS011;59274;49.874;9.154;2023-11-19T11:44:01;2.43;;;1.13;;
71464;SDS011;59274;49.874;9.154;2023-11-19T11:49:05;2.95;;;1.10;;
71464;SDS011;59274;49.874;9.154;2023-11-19T11:57:00;3.40;;;1.07;;
71464;SDS011;59274;49.874;9.154;2023-11-19T11:59:26;3.33;;;1.33;;
71464;SDS011;59274;49.874;9.154;2023-11-19T12:01:57;1.70;;;0.70;;
71464;SDS011;59274;49.874;9.154;2023-11-19T12:04:26;4.93;;;1.30;;
71464;SDS011;59274;49.874;9.154;2023-11-19T12:07:05;6.45;;;2.17;;
71464;SDS011;59274;49.874;9.154;2023-11-19T12:09:31;1.40;;;0.90;;
71464;SDS011;59274;49.874;9.154;2023-11-19T12:12:09;4.50;;;1.00;;
71464;SDS011;59274;49.874;9.154;2023-11-19T12:18:09;3.22;;;1.25;;
71464;SDS011;59274;49.874;9.154;2023-11-19T12:20:17;4.65;;;1.33;;
71464;SDS011;59274;49.874;9.154;2023-11-19T12:22:45;3.27;;;1.10;;
71464;SDS011;59274;49.874;9.154;2023-11-19T12:25:12;4.55;;;0.80;;
71464;SDS011;59274;49.874;9.154;2023-11-19T12:27:41;6.15;;;1.52;;
71464;SDS011;59274;49.874;9.154;2023-11-19T12:30:08;1.77;;;0.73;;
71464;SDS011;59274;49.874;9.154;2023-11-19T12:32:41;1.30;;;0.80;;
71464;SDS011;59274;49.874;9.154;2023-11-19T12:35:08;3.83;;;0.82;;
71464;SDS011;59274;49.874;9.154;2023-11-19T12:37:41;2.05;;;0.80;;
71464;SDS011;59274;49.874;9.154;2023-11-19T12:40:14;4.30;;;0.90;;
71464;SDS011;59274;49.874;9.154;2023-11-19T12:42:44;2.50;;;0.88;;
71464;SDS011;59274;49.874;9.154;2023-11-19T12:45:13;3.10;;;0.87;;
71464;SDS011;59274;49.874;9.154;2023-11-19T12:47:41;4.70;;;0.85;;
71464;SDS011;59274;49.874;9.154;2023-11-19T12:50:07;1.90;;;0.93;;
71464;SDS011;59274;49.874;9.154;2023-11-19T12:52:36;1.77;;;0.80;;
71464;SDS011;59274;49.874;9.154;2023-11-19T12:55:06;5.35;;;1.05;;
71464;SDS011;59274;49.874;9.154;2023-11-19T12:57:51;1.63;;;0.67;;
71464;SDS011;59274;49.874;9.154;2023-11-19T13:00:20;2.30;;;0.85;;
71464;SDS011;59274;49.874;9.154;2023-11-19T13:02:53;2.05;;;0.85;;
71464;SDS011;59274;49.874;9.154;2023-11-19T13:05:26;1.55;;;0.70;;
71464;SDS011;59274;49.874;9.154;2023-11-19T13:10:25;5.35;;;1.25;;
71464;SDS011;59274;49.874;9.154;2023-11-19T13:13:05;2.05;;;0.98;;
71464;SDS011;59274;49.874;9.154;2023-11-19T13:15:34;1.88;;;0.95;;
71464;SDS011;59274;49.874;9.154;2023-11-19T13:18:00;2.38;;;0.90;;
71464;SDS011;59274;49.874;9.154;2023-11-19T13:20:27;3.00;;;0.82;;
71464;SDS011;59274;49.874;9.154;2023-11-19T13:22:55;3.08;;;1.00;;
71464;SDS011;59274;49.874;9.154;2023-11-19T13:25:24;1.57;;;0.60;;
71464;SDS011;59274;49.874;9.154;2023-11-19T13:27:49;1.95;;;0.80;;
71464;SDS011;59274;49.874;9.154;2023-11-19T13:30:15;1.83;;;0.77;;
71464;SDS011;59274;49.874;9.154;2023-11-19T13:32:41;3.58;;;0.80;;
71464;SDS011;59274;49.874;9.154;2023-11-19T13:35:07;4.10;;;0.80;;
71464;SDS011;59274;49.874;9.154;2023-11-19T13:37:34;3.83;;;1.00;;
71464;SDS011;59274;49.874;9.154;2023-11-19T13:39:59;2.53;;;0.90;;
71464;SDS011;59274;49.874;9.154;2023-11-19T13:42:25;3.93;;;0.80;;
71464;SDS011;59274;49.874;9.154;2023-11-19T13:44:51;3.42;;;1.00;;
71464;SDS011;59274;49.874;9.154;2023-11-19T13:47:16;2.43;;;0.77;;
71464;SDS011;59274;49.874;9.154;2023-11-19T13:49:41;4.03;;;1.00;;
71464;SDS011;59274;49.874;9.154;2023-11-19T13:52:07;2.50;;;0.87;;
71464;SDS011;59274;49.874;9.154;2023-11-19T13:54:32;3.95;;;0.93;;
71464;SDS011;59274;49.874;9.154;2023-11-19T13:56:58;5.50;;;0.90;;
71464;SDS011;59274;49.874;9.154;2023-11-19T13:59:23;3.93;;;1.20;;
71464;SDS011;59274;49.874;9.154;2023-11-19T14:01:52;3.45;;;0.88;;
71464;SDS011;59274;49.874;9.154;2023-11-19T14:04:17;3.87;;;1.00;;
71464;SDS011;59274;49.874;9.154;2023-11-19T14:06:44;3.70;;;0.77;;
71464;SDS011;59274;49.874;9.154;2023-11-19T14:09:10;4.90;;;0.88;;
71464;SDS011;59274;49.874;9.154;2023-11-19T14:11:35;2.60;;;0.70;;
71464;SDS011;59274;49.874;9.154;2023-11-19T14:14:01;8.68;;;1.30;;
71464;SDS011;59274;49.874;9.154;2023-11-19T14:16:27;6.37;;;1.03;;
71464;SDS011;59274;49.874;9.154;2023-11-19T14:18:52;7.90;;;2.10;;
71464;SDS011;59274;49.874;9.154;2023-11-19T14:21:18;7.95;;;2.75;;
71464;SDS011;59274;49.874;9.154;2023-11-19T14:23:43;17.70;;;7.80;;
71464;SDS011;59274;49.874;9.154;2023-11-19T14:26:09;9.13;;;4.50;;
71464;SDS011;59274;49.874;9.154;2023-11-19T14:28:35;12.50;;;5.68;;
71464;SDS011;59274;49.874;9.154;2023-11-19T14:31:00;11.37;;;5.67;;
71464;SDS011;59274;49.874;9.154;2023-11-19T14:33:26;7.57;;;3.60;;
71464;SDS011;59274;49.874;9.154;2023-11-19T14:35:51;8.63;;;2.50;;
71464;SDS011;59274;49.874;9.154;2023-11-19T14:38:17;11.20;;;4.43;;
71464;SDS011;59274;49.874;9.154;2023-11-19T14:40:43;9.23;;;3.67;;
71464;SDS011;59274;49.874;9.154;2023-11-19T14:43:08;8.43;;;4.13;;
71464;SDS011;59274;49.874;9.154;2023-11-19T14:45:37;10.02;;;3.00;;
71464;SDS011;59274;49.874;9.154;2023-11-19T14:48:03;8.00;;;2.35;;
71464;SDS011;59274;49.874;9.154;2023-11-19T14:50:29;10.80;;;3.25;;
71464;SDS011;59274;49.874;9.154;2023-11-19T14:52:54;25.80;;;13.10;;
71464;SDS011;59274;49.874;9.154;2023-11-19T14:55:20;9.68;;;3.67;;
71464;SDS011;59274;49.874;9.154;2023-11-19T14:57:45;19.73;;;9.63;;
71464;SDS011;59274;49.874;9.154;2023-11-19T15:00:11;21.23;;;9.30;;
71464;SDS011;59274;49.874;9.154;2023-11-19T15:02:40;12.45;;;6.05;;
71464;SDS011;59274;49.874;9.154;2023-11-19T15:05:06;4.40;;;1.08;;
71464;SDS011;59274;49.874;9.154;2023-11-19T15:07:35;8.10;;;2.63;;
71464;SDS011;59274;49.874;9.154;2023-11-19T15:10:02;8.68;;;3.45;;
71464;SDS011;59274;49.874;9.154;2023-11-19T15:12:27;1.65;;;1.10;;